Time;durP1;ratioP1;P1;durP2;ratioP2;P2;SDS_P1;SDS_P2;PMS_P1;PMS_P2;Temp;Humidity;BMP_temperature;BMP_pressure;BME280_temperature;BME280_humidity;BME280_pressure;Samples;Min_cycle;Max_cycle;Signal;HPM_P1;HPM_P2
2022/04/16 00:02:19;;;;;;;4.63;4.23;;;11.30;84.90;;;;;;6257044;28;20204;-68
2022/04/16 00:05:22;;;;;;;5.97;4.77;;;11.20;85.30;;;;;;6287911;28;20241;-67
2022/04/16 00:08:25;;;;;;;5.07;4.53;;;11.20;85.20;;;;;;6285789;28;20220;-67
2022/04/16 00:11:26;;;;;;;3.70;3.40;;;11.20;85.50;;;;;;6264620;28;20193;-67
2022/04/16 00:14:27;;;;;;;5.57;4.57;;;11.10;85.70;;;;;;6279371;28;20196;-67
2022/04/16 00:17:28;;;;;;;5.07;4.37;;;11.00;85.70;;;;;;6263536;28;20215;-67
2022/04/16 00:20:29;;;;;;;4.67;3.97;;;10.90;85.30;;;;;;6262770;28;20204;-67
2022/04/16 00:23:30;;;;;;;3.93;3.53;;;10.90;85.70;;;;;;6264005;28;20193;-67
2022/04/16 00:26:31;;;;;;;4.40;4.00;;;10.80;85.80;;;;;;6266680;28;20394;-67
2022/04/16 00:29:32;;;;;;;5.00;4.13;;;10.80;86.10;;;;;;6283679;28;20588;-66
2022/04/16 00:32:33;;;;;;;3.60;3.30;;;10.80;85.90;;;;;;6264373;28;20200;-67
2022/04/16 00:35:35;;;;;;;3.60;3.00;;;10.80;86.20;;;;;;6289825;28;20180;-66
2022/04/16 00:38:35;;;;;;;3.60;3.20;;;10.80;86.30;;;;;;6306160;28;20219;-67
2022/04/16 00:41:39;;;;;;;6.17;5.07;;;10.70;86.30;;;;;;6288583;28;20283;-66
2022/04/16 00:44:40;;;;;;;4.43;3.80;;;10.70;86.00;;;;;;6262701;28;20284;-67
2022/04/16 00:47:41;;;;;;;4.27;3.83;;;10.70;86.10;;;;;;6263891;28;20226;-67
2022/04/16 00:50:43;;;;;;;4.17;3.50;;;10.60;86.30;;;;;;6262468;28;20261;-66
2022/04/16 00:53:44;;;;;;;4.03;3.73;;;10.60;86.40;;;;;;6300135;28;20214;-67
2022/04/16 00:56:45;;;;;;;4.93;4.40;;;10.60;86.40;;;;;;6313678;28;20187;-68
2022/04/16 00:59:46;;;;;;;7.97;6.30;;;10.60;86.60;;;;;;6278131;28;20206;-66
2022/04/16 01:02:47;;;;;;;5.20;4.70;;;10.50;85.40;;;;;;6269960;28;20196;-67
2022/04/16 01:05:48;;;;;;;5.87;4.50;;;10.50;86.30;;;;;;6287612;28;20291;-67
2022/04/16 01:08:48;;;;;;;4.47;3.87;;;10.40;86.30;;;;;;6288988;28;20217;-66
2022/04/16 01:11:50;;;;;;;3.87;3.57;;;10.40;86.60;;;;;;6278757;28;20551;-68
2022/04/16 01:14:51;;;;;;;4.17;3.67;;;10.40;86.50;;;;;;6279468;28;20250;-67
2022/04/16 01:17:53;;;;;;;4.33;3.67;;;10.30;86.50;;;;;;6280404;28;20279;-67
2022/04/16 01:20:55;;;;;;;4.37;3.77;;;10.30;86.50;;;;;;6293357;28;20275;-66
2022/04/16 01:23:56;;;;;;;3.60;3.27;;;10.30;86.60;;;;;;6284472;28;20204;-66
2022/04/16 01:26:58;;;;;;;3.00;2.80;;;10.20;86.70;;;;;;6287004;28;20276;-67
2022/04/16 01:29:59;;;;;;;4.80;3.93;;;10.20;86.80;;;;;;6276911;28;20233;-68
2022/04/16 01:33:01;;;;;;;6.20;5.20;;;10.20;87.00;;;;;;6278818;28;20286;-66
2022/04/16 01:36:02;;;;;;;4.17;3.47;;;10.10;86.80;;;;;;6279349;28;20197;-66
2022/04/16 01:39:03;;;;;;;4.40;4.00;;;10.00;87.00;;;;;;6249146;28;20192;-66
2022/04/16 01:42:04;;;;;;;4.10;3.50;;;10.00;87.10;;;;;;6287182;28;20216;-67
2022/04/16 01:45:10;;;;;;;3.53;2.80;;;10.00;87.20;;;;;;6287187;28;20188;-65
2022/04/16 01:48:13;;;;;;;3.33;2.93;;;9.90;87.10;;;;;;6298633;28;20229;-66
2022/04/16 01:51:17;;;;;;;3.50;3.20;;;9.90;87.20;;;;;;6263937;28;20224;-67
2022/04/16 01:54:18;;;;;;;4.10;3.60;;;9.90;87.20;;;;;;6309701;28;20196;-66
2022/04/16 01:57:20;;;;;;;4.13;3.77;;;9.80;87.20;;;;;;6281015;28;20207;-66
2022/04/16 02:00:23;;;;;;;6.77;5.87;;;9.80;87.30;;;;;;6262071;28;20207;-67
2022/04/16 02:03:24;;;;;;;4.43;4.03;;;9.80;87.20;;;;;;6262726;28;20242;-67
2022/04/16 02:06:25;;;;;;;5.47;4.97;;;9.80;87.40;;;;;;6262911;28;20221;-67
2022/04/16 02:09:26;;;;;;;5.60;5.10;;;9.80;87.50;;;;;;6265902;28;20212;-67
2022/04/16 02:12:28;;;;;;;4.53;3.83;;;9.70;87.60;;;;;;6260481;28;20239;-67
2022/04/16 02:15:29;;;;;;;4.90;4.37;;;9.70;87.60;;;;;;6260425;28;20189;-66
2022/04/16 02:18:29;;;;;;;3.63;3.30;;;9.70;87.50;;;;;;6267432;28;20211;-67
2022/04/16 02:21:32;;;;;;;6.07;5.47;;;9.70;87.60;;;;;;6286761;28;20254;-67
2022/04/16 02:24:33;;;;;;;4.17;3.80;;;9.70;87.60;;;;;;6268427;28;20201;-67
2022/04/16 02:27:34;;;;;;;6.00;4.20;;;9.70;87.70;;;;;;6286566;28;20306;-67
2022/04/16 02:30:37;;;;;;;7.57;6.47;;;9.70;87.90;;;;;;6278512;28;20229;-67
2022/04/16 02:33:38;;;;;;;5.30;4.67;;;9.70;87.80;;;;;;6262318;28;20231;-66
2022/04/16 02:36:40;;;;;;;4.47;3.80;;;9.70;87.90;;;;;;6263737;28;20193;-66
2022/04/16 02:39:40;;;;;;;6.50;5.67;;;9.70;87.90;;;;;;6272720;28;20192;-67
2022/04/16 02:42:45;;;;;;;6.60;5.90;;;9.70;88.00;;;;;;6257013;28;20199;-66
2022/04/16 02:49:06;;;;;;;8.10;5.67;;;9.70;87.80;;;;;;6310241;28;20212;-67
2022/04/16 02:52:08;;;;;;;9.90;7.30;;;9.70;87.80;;;;;;6333088;28;20184;-67
2022/04/16 02:55:09;;;;;;;5.60;5.10;;;9.70;87.40;;;;;;6333784;28;20223;-66
2022/04/16 02:58:11;;;;;;;6.73;5.80;;;9.80;87.70;;;;;;6315498;28;20286;-66
2022/04/16 03:01:11;;;;;;;5.83;4.93;;;9.70;87.60;;;;;;6299986;28;20183;-66
2022/04/16 03:04:12;;;;;;;4.93;4.43;;;9.70;87.60;;;;;;6331198;28;20246;-66
2022/04/16 03:07:13;;;;;;;4.73;4.17;;;9.70;87.60;;;;;;6291323;28;20225;-66
2022/04/16 03:10:15;;;;;;;4.27;3.87;;;9.70;87.70;;;;;;6280296;28;20189;-66
2022/04/16 03:13:16;;;;;;;5.57;4.10;;;9.60;87.70;;;;;;6299211;28;20185;-66
2022/04/16 03:19:36;;;;;;;5.97;5.37;;;9.50;87.60;;;;;;6267781;28;20201;-66
2022/04/16 03:22:37;;;;;;;5.80;5.20;;;9.40;87.60;;;;;;6282098;28;20236;-66
2022/04/16 03:25:40;;;;;;;7.80;6.30;;;9.40;87.30;;;;;;6274552;28;20259;-66
2022/04/16 03:28:41;;;;;;;6.10;5.50;;;9.30;86.80;;;;;;6281932;28;20209;-67
2022/04/16 03:31:42;;;;;;;5.97;4.90;;;9.20;87.10;;;;;;6264209;28;20232;-66
2022/04/16 03:34:43;;;;;;;7.97;6.60;;;9.10;87.20;;;;;;6265990;28;20189;-67
2022/04/16 03:37:44;;;;;;;7.40;5.63;;;9.00;86.90;;;;;;6265258;28;20189;-66
2022/04/16 03:40:48;;;;;;;7.40;5.67;;;8.90;87.00;;;;;;6284124;28;20230;-66
2022/04/16 03:43:48;;;;;;;6.17;5.30;;;8.80;87.00;;;;;;6280931;28;20284;-66
2022/04/16 03:46:49;;;;;;;7.47;5.70;;;8.80;87.20;;;;;;6266419;28;20270;-67
2022/04/16 03:49:51;;;;;;;8.20;6.17;;;8.60;87.20;;;;;;6282838;28;20196;-67
2022/04/16 03:52:53;;;;;;;6.90;5.90;;;8.60;87.10;;;;;;6265541;28;20181;-67
2022/04/16 04:02:38;;;;;;;6.93;5.53;;;8.30;87.30;;;;;;6291906;28;20213;-67
2022/04/16 04:05:40;;;;;;;8.33;6.90;;;8.20;87.30;;;;;;6289444;28;20287;-67
2022/04/16 04:08:41;;;;;;;7.33;6.07;;;8.10;87.40;;;;;;6280873;28;20212;-67
2022/04/16 04:11:42;;;;;;;8.03;5.53;;;8.00;87.50;;;;;;6281790;28;20196;-67
2022/04/16 04:14:44;;;;;;;6.37;5.27;;;8.00;87.60;;;;;;6255004;28;20192;-67
2022/04/16 04:17:46;;;;;;;8.90;7.63;;;7.90;87.70;;;;;;6280833;28;20185;-67
2022/04/16 04:20:47;;;;;;;7.83;6.27;;;7.90;87.80;;;;;;6280445;28;20205;-66
2022/04/16 04:23:48;;;;;;;8.20;6.83;;;7.80;87.90;;;;;;6267044;28;20208;-67
2022/04/16 04:26:48;;;;;;;6.70;6.00;;;7.80;88.00;;;;;;6275789;28;20267;-67
2022/04/16 04:29:49;;;;;;;10.47;7.50;;;7.80;88.10;;;;;;6284503;28;20224;-67
2022/04/16 04:32:50;;;;;;;11.57;9.63;;;7.70;88.30;;;;;;6274534;28;20199;-67
2022/04/16 04:35:51;;;;;;;11.83;9.70;;;7.70;88.50;;;;;;6272162;28;20279;-66
2022/04/16 04:38:52;;;;;;;10.73;8.10;;;7.70;88.60;;;;;;6264680;28;20193;-66
2022/04/16 04:41:52;;;;;;;8.10;7.20;;;7.70;88.80;;;;;;6266242;28;20197;-66
2022/04/16 04:44:54;;;;;;;11.03;8.47;;;7.70;88.80;;;;;;6273757;28;20453;-67
2022/04/16 04:47:54;;;;;;;9.63;7.80;;;7.70;88.90;;;;;;6284657;28;20216;-67
2022/04/16 04:50:55;;;;;;;9.00;7.43;;;7.60;88.90;;;;;;6270158;28;20208;-67
2022/04/16 04:53:56;;;;;;;7.83;6.80;;;7.70;88.80;;;;;;6272903;28;20194;-66
2022/04/16 04:56:57;;;;;;;8.60;6.37;;;7.70;88.70;;;;;;6277932;28;20204;-66
2022/04/16 04:59:57;;;;;;;6.90;5.77;;;7.70;88.60;;;;;;6272855;28;20197;-66
2022/04/16 05:02:58;;;;;;;7.77;6.77;;;7.70;88.60;;;;;;6286819;28;20227;-67
2022/04/16 05:05:59;;;;;;;5.83;5.13;;;7.70;88.50;;;;;;6282929;28;20189;-67
2022/04/16 05:09:00;;;;;;;7.60;6.70;;;7.70;88.60;;;;;;6277596;28;20275;-67
2022/04/16 05:12:01;;;;;;;7.60;6.20;;;7.70;88.70;;;;;;6276304;28;20199;-67
2022/04/16 05:15:04;;;;;;;8.33;6.90;;;7.70;88.70;;;;;;6287364;28;20216;-67
2022/04/16 05:18:04;;;;;;;7.17;5.10;;;7.70;88.70;;;;;;6279494;28;20707;-67
2022/04/16 05:21:05;;;;;;;8.00;5.90;;;7.80;88.80;;;;;;6263362;28;20203;-67
2022/04/16 05:24:06;;;;;;;6.77;6.07;;;7.80;88.80;;;;;;6272248;28;20202;-67
2022/04/16 05:27:09;;;;;;;7.03;6.03;;;7.80;88.90;;;;;;6283821;28;20220;-67
2022/04/16 05:30:14;;;;;;;5.97;4.50;;;7.80;88.90;;;;;;6269124;28;20259;-66
2022/04/16 05:36:35;;;;;;;4.60;4.03;;;7.90;88.80;;;;;;6320174;28;20184;-66
2022/04/16 05:39:37;;;;;;;4.07;3.50;;;8.00;88.80;;;;;;6285681;28;20203;-67
2022/04/16 05:42:42;;;;;;;4.40;3.80;;;8.00;88.80;;;;;;6274942;28;20233;-67
2022/04/16 05:45:44;;;;;;;4.77;3.70;;;8.00;88.70;;;;;;6261670;28;20204;-67
2022/04/16 05:48:46;;;;;;;3.37;3.07;;;8.00;88.70;;;;;;6273321;28;20215;-67
2022/04/16 05:51:47;;;;;;;3.23;2.93;;;8.10;88.60;;;;;;6246362;28;20245;-67
2022/04/16 05:54:48;;;;;;;2.83;2.53;;;8.10;88.60;;;;;;6266057;28;20196;-67
2022/04/16 05:57:49;;;;;;;2.40;2.20;;;8.20;88.50;;;;;;6277250;28;20196;-67
2022/04/16 06:00:49;;;;;;;2.87;2.23;;;8.20;88.40;;;;;;6275453;28;20291;-68
2022/04/16 06:03:50;;;;;;;2.70;2.50;;;8.20;88.20;;;;;;6279928;28;20199;-67
2022/04/16 06:06:51;;;;;;;2.33;2.10;;;8.30;87.80;;;;;;6280305;28;20221;-66
2022/04/16 06:09:52;;;;;;;3.10;2.20;;;8.30;87.70;;;;;;6278719;28;20185;-66
2022/04/16 06:12:53;;;;;;;3.50;2.70;;;8.30;87.20;;;;;;6286781;28;20210;-66
2022/04/16 06:15:53;;;;;;;2.37;2.17;;;8.40;86.60;;;;;;6305378;28;20227;-66
2022/04/16 06:18:54;;;;;;;2.80;2.20;;;8.40;86.20;;;;;;6276784;28;20196;-67
2022/04/16 06:21:55;;;;;;;2.00;1.80;;;8.50;84.50;;;;;;6266169;28;20205;-67
2022/04/16 06:24:56;;;;;;;1.97;1.77;;;8.50;82.40;;;;;;6265929;28;20193;-67
2022/04/16 06:27:57;;;;;;;2.47;1.80;;;8.60;82.80;;;;;;6269907;28;20223;-67
2022/04/16 06:30:58;;;;;;;1.60;1.50;;;8.70;82.10;;;;;;6268782;28;20232;-68
2022/04/16 06:33:59;;;;;;;1.93;1.30;;;8.70;80.50;;;;;;6266544;28;20190;-67
2022/04/16 06:36:59;;;;;;;1.53;1.43;;;8.80;71.70;;;;;;6292512;28;20193;-67
2022/04/16 06:40:01;;;;;;;1.67;1.57;;;9.00;71.90;;;;;;6285162;28;20228;-65
2022/04/16 06:43:02;;;;;;;2.07;1.77;;;9.20;72.30;;;;;;6305127;28;20196;-67
2022/04/16 06:46:06;;;;;;;1.57;1.47;;;9.30;69.90;;;;;;6292837;28;20321;-67
2022/04/16 06:49:07;;;;;;;1.67;1.47;;;9.70;67.20;;;;;;6321473;28;20184;-66
2022/04/16 06:52:08;;;;;;;1.77;1.57;;;9.90;64.20;;;;;;6264908;28;20184;-67
2022/04/16 06:55:09;;;;;;;1.30;1.20;;;10.30;62.90;;;;;;6266081;28;20195;-67
2022/04/16 06:58:10;;;;;;;1.30;1.20;;;10.30;62.50;;;;;;6282527;28;20197;-67
2022/04/16 07:01:10;;;;;;;1.80;1.60;;;10.50;62.40;;;;;;6264744;28;20201;-67
2022/04/16 07:04:11;;;;;;;1.83;1.73;;;10.60;60.10;;;;;;6265616;28;20192;-66
2022/04/16 07:07:12;;;;;;;1.30;1.20;;;10.80;59.50;;;;;;6265398;28;20241;-66
2022/04/16 07:10:13;;;;;;;1.50;1.33;;;10.80;59.40;;;;;;6264693;28;20196;-67
2022/04/16 07:13:13;;;;;;;1.33;1.23;;;10.90;58.70;;;;;;6262161;28;20192;-67
2022/04/16 07:16:14;;;;;;;1.20;1.10;;;11.00;56.30;;;;;;6265617;28;20188;-67
2022/04/16 07:19:15;;;;;;;1.20;1.10;;;11.10;56.20;;;;;;6265135;28;20192;-67
2022/04/16 07:22:19;;;;;;;1.13;1.07;;;11.10;55.50;;;;;;6265217;28;20224;-67
2022/04/16 07:25:21;;;;;;;2.97;0.80;;;11.20;55.10;;;;;;6288772;28;20283;-67
2022/04/16 07:28:22;;;;;;;0.90;0.90;;;11.30;55.30;;;;;;6288733;28;20218;-66
2022/04/16 07:31:23;;;;;;;1.37;1.27;;;11.30;57.20;;;;;;6279962;28;20258;-67
2022/04/16 07:34:25;;;;;;;1.20;1.10;;;11.40;55.70;;;;;;6264685;28;20192;-66
2022/04/16 07:37:26;;;;;;;0.80;0.80;;;11.50;56.60;;;;;;6280374;28;20341;-67
2022/04/16 07:40:28;;;;;;;0.93;0.93;;;11.60;57.50;;;;;;6288269;28;20184;-67
2022/04/16 07:43:30;;;;;;;1.30;1.20;;;11.70;56.30;;;;;;6281594;28;20196;-68
2022/04/16 07:46:31;;;;;;;1.10;1.00;;;11.80;53.80;;;;;;6287985;28;20228;-68
2022/04/16 07:49:32;;;;;;;0.70;0.70;;;12.00;53.90;;;;;;6277782;28;20189;-68
2022/04/16 07:52:33;;;;;;;0.70;0.70;;;12.10;53.30;;;;;;6280795;28;20279;-67
2022/04/16 07:55:34;;;;;;;1.27;0.80;;;12.20;51.50;;;;;;6281133;28;20207;-68
2022/04/16 07:58:35;;;;;;;0.70;0.70;;;12.20;51.10;;;;;;6262277;28;20223;-67
2022/04/16 08:01:36;;;;;;;0.70;0.70;;;12.30;51.60;;;;;;6263937;28;20193;-67
2022/04/16 08:04:37;;;;;;;0.60;0.60;;;12.30;51.80;;;;;;6263834;28;20199;-66
2022/04/16 08:07:37;;;;;;;0.97;0.93;;;12.40;52.50;;;;;;6262783;28;20227;-67
2022/04/16 08:10:38;;;;;;;0.70;0.70;;;12.50;52.50;;;;;;6263123;28;20196;-67
2022/04/16 08:13:39;;;;;;;0.50;0.50;;;12.60;52.20;;;;;;6282156;28;20281;-66
2022/04/16 08:16:40;;;;;;;0.50;0.50;;;12.70;51.40;;;;;;6287542;28;20203;-67
2022/04/16 08:19:41;;;;;;;0.77;0.70;;;12.80;51.30;;;;;;6288157;28;20197;-67
2022/04/16 08:22:46;;;;;;;0.40;0.40;;;12.90;51.10;;;;;;6268529;28;20203;-67
2022/04/16 08:25:47;;;;;;;0.60;0.60;;;13.00;51.80;;;;;;6263544;28;20200;-66
2022/04/16 08:28:48;;;;;;;0.37;0.30;;;13.20;49.50;;;;;;6263633;28;20224;-67
2022/04/16 08:31:49;;;;;;;0.50;0.50;;;13.30;49.80;;;;;;6270879;28;20247;-67
2022/04/16 08:34:50;;;;;;;0.87;0.40;;;13.40;49.00;;;;;;6249484;28;20200;-66
2022/04/16 08:37:51;;;;;;;0.70;0.70;;;13.50;46.80;;;;;;6263375;28;20196;-67
2022/04/16 08:40:55;;;;;;;0.50;0.50;;;13.70;47.60;;;;;;6264249;28;20206;-67
2022/04/16 08:43:57;;;;;;;0.53;0.50;;;13.70;48.10;;;;;;6279236;28;20266;-67
2022/04/16 08:46:58;;;;;;;0.47;0.47;;;13.80;46.90;;;;;;6265422;28;20258;-67
2022/04/16 08:50:00;;;;;;;0.30;0.30;;;14.00;47.70;;;;;;6325862;28;20276;-67
2022/04/16 08:53:01;;;;;;;0.60;0.60;;;14.00;46.10;;;;;;6300489;28;20187;-67
2022/04/16 08:56:02;;;;;;;0.30;0.30;;;14.00;45.60;;;;;;6287374;28;20183;-66
2022/04/16 08:59:03;;;;;;;0.50;0.50;;;14.00;46.10;;;;;;6287450;28;20276;-67
2022/04/16 09:02:05;;;;;;;0.50;0.40;;;14.00;45.90;;;;;;6274945;28;20189;-66
2022/04/16 09:05:08;;;;;;;0.30;0.30;;;14.00;45.90;;;;;;6261217;28;20185;-66
2022/04/16 09:08:10;;;;;;;0.43;0.43;;;14.00;45.40;;;;;;6278274;28;20247;-66
2022/04/16 09:11:12;;;;;;;0.40;0.40;;;14.00;47.00;;;;;;6279107;28;20196;-66
2022/04/16 09:14:13;;;;;;;0.40;0.40;;;14.20;46.90;;;;;;6278852;28;20224;-66
2022/04/16 09:17:17;;;;;;;0.60;0.53;;;14.20;46.20;;;;;;6265971;28;20209;-66
2022/04/16 09:20:18;;;;;;;0.30;0.30;;;14.20;46.50;;;;;;6270276;28;20209;-66
2022/04/16 09:23:20;;;;;;;0.30;0.30;;;14.30;46.10;;;;;;6286213;28;20193;-68
2022/04/16 09:26:32;;;;;;;0.50;0.50;;;14.50;47.20;;;;;;6286864;28;20190;-67
2022/04/16 09:29:33;;;;;;;0.40;0.40;;;14.60;44.60;;;;;;6276766;28;20193;-66
2022/04/16 09:32:43;;;;;;;0.93;0.40;;;14.70;44.60;;;;;;6276346;28;20280;-68
2022/04/16 09:35:46;;;;;;;0.60;0.30;;;14.80;45.60;;;;;;6284670;28;20190;-67
2022/04/16 09:38:48;;;;;;;0.20;0.20;;;14.80;44.50;;;;;;6285987;28;20200;-67
2022/04/16 09:41:51;;;;;;;1.07;0.40;;;14.90;45.30;;;;;;6285480;28;20197;-67
2022/04/16 09:44:52;;;;;;;0.57;0.50;;;15.00;45.70;;;;;;6286742;28;20185;-67
2022/04/16 09:47:53;;;;;;;0.17;0.17;;;15.10;45.50;;;;;;6284189;28;20223;-67
2022/04/16 09:50:56;;;;;;;0.37;0.33;;;15.20;45.30;;;;;;6266800;28;20223;-67
2022/04/16 09:53:58;;;;;;;0.40;0.40;;;15.30;45.30;;;;;;6278960;28;20174;-67
2022/04/16 09:57:02;;;;;;;0.33;0.30;;;15.30;45.30;;;;;;6278586;28;20201;-67
2022/04/16 10:00:04;;;;;;;0.30;0.30;;;15.40;44.30;;;;;;6261554;28;20186;-67
2022/04/16 10:03:12;;;;;;;0.20;0.20;;;15.40;44.80;;;;;;6279158;28;20216;-66
2022/04/16 10:06:15;;;;;;;0.73;0.40;;;15.30;43.40;;;;;;6260950;28;20223;-66
2022/04/16 10:09:22;;;;;;;0.50;0.50;;;15.40;44.20;;;;;;6268921;28;20194;-67
2022/04/16 10:15:48;;;;;;;0.30;0.30;;;15.70;43.40;;;;;;6277374;28;20220;-66
2022/04/16 10:18:49;;;;;;;0.77;0.50;;;15.80;43.00;;;;;;6211668;28;20212;-67
2022/04/16 10:21:54;;;;;;;0.10;0.10;;;15.90;43.00;;;;;;6261797;28;20190;-67
2022/04/16 10:24:57;;;;;;;1.27;0.30;;;15.80;42.20;;;;;;6274107;28;20200;-67
2022/04/16 10:28:09;;;;;;;0.20;0.20;;;15.80;42.40;;;;;;6283627;28;20213;-66
2022/04/16 10:31:30;;;;;;;0.27;0.27;;;15.80;41.50;;;;;;6278066;28;20240;-67
2022/04/16 10:34:30;;;;;;;0.30;0.30;;;15.70;40.60;;;;;;6278990;28;20174;-67
2022/04/16 10:37:38;;;;;;;0.20;0.20;;;15.50;41.40;;;;;;6277637;28;20185;-67
2022/04/16 10:40:42;;;;;;;0.20;0.20;;;15.30;41.90;;;;;;6260681;28;20645;-67
2022/04/16 10:43:59;;;;;;;0.37;0.37;;;15.40;42.90;;;;;;6263885;28;20205;-67
2022/04/16 10:47:04;;;;;;;0.20;0.20;;;15.50;43.70;;;;;;6296441;28;20239;-67
2022/04/16 10:50:17;;;;;;;0.63;0.20;;;15.60;42.00;;;;;;6307859;28;20233;-67
2022/04/16 10:53:27;;;;;;;0.20;0.20;;;15.60;43.00;;;;;;6327079;28;20188;-66
2022/04/16 10:56:31;;;;;;;0.20;0.20;;;15.70;43.30;;;;;;6291364;28;20194;-67
2022/04/16 10:59:43;;;;;;;0.10;0.10;;;15.70;42.10;;;;;;6265354;28;20280;-67
2022/04/16 11:02:44;;;;;;;0.30;0.30;;;15.70;42.00;;;;;;6281879;28;20260;-66
2022/04/16 11:05:44;;;;;;;1.30;0.10;;;15.60;41.50;;;;;;6301952;28;20183;-67
2022/04/16 11:08:46;;;;;;;0.17;0.17;;;15.70;43.50;;;;;;6285193;28;20220;-67
2022/04/16 11:11:51;;;;;;;0.10;0.10;;;15.70;42.90;;;;;;6287582;28;20197;-67
2022/04/16 11:14:53;;;;;;;0.20;0.20;;;15.60;41.50;;;;;;6304744;28;20188;-67
2022/04/16 11:17:58;;;;;;;0.50;0.23;;;15.60;42.10;;;;;;6272270;28;20225;-67
2022/04/16 11:20:59;;;;;;;0.20;0.20;;;15.70;41.90;;;;;;6299329;28;20193;-67
2022/04/16 11:24:07;;;;;;;0.20;0.20;;;15.70;39.10;;;;;;6289262;28;20279;-68
2022/04/16 11:34:24;;;;;;;0.17;0.17;;;15.60;40.50;;;;;;6286185;28;20200;-67
2022/04/16 11:37:26;;;;;;;0.27;0.27;;;15.60;40.90;;;;;;6293395;28;20181;-67
2022/04/16 11:40:27;;;;;;;0.20;0.20;;;15.80;41.30;;;;;;6288878;28;20196;-65
2022/04/16 11:43:28;;;;;;;0.10;0.10;;;16.00;40.50;;;;;;6280132;28;20192;-67
2022/04/16 11:46:29;;;;;;;0.20;0.20;;;15.90;41.20;;;;;;6288223;28;20192;-67
2022/04/16 11:49:30;;;;;;;0.10;0.10;;;16.00;39.90;;;;;;6288315;28;20192;-68
2022/04/16 11:52:34;;;;;;;0.40;0.27;;;16.20;39.00;;;;;;6283127;28;20275;-67
2022/04/16 11:55:47;;;;;;;0.20;0.20;;;16.50;39.20;;;;;;6305011;28;20181;-67
2022/04/16 11:58:52;;;;;;;0.20;0.20;;;17.10;40.50;;;;;;6304867;28;20253;-68
2022/04/16 12:02:07;;;;;;;0.23;0.23;;;17.80;35.90;;;;;;6305673;28;20288;-68
2022/04/16 12:05:13;;;;;;;0.43;0.20;;;18.20;36.30;;;;;;6285320;28;20200;-68
2022/04/16 12:08:17;;;;;;;0.30;0.30;;;18.70;34.70;;;;;;6283639;28;20280;-67
2022/04/16 12:11:22;;;;;;;0.30;0.23;;;19.50;33.90;;;;;;6304279;28;20190;-67
2022/04/16 12:14:23;;;;;;;0.33;0.30;;;20.20;33.10;;;;;;6274969;28;20254;-67
2022/04/16 12:17:29;;;;;;;0.30;0.20;;;20.90;30.50;;;;;;6277699;28;20201;-66
2022/04/16 12:20:30;;;;;;;0.20;0.20;;;21.20;29.80;;;;;;6288524;28;20189;-67
2022/04/16 12:23:30;;;;;;;0.10;0.10;;;21.80;29.70;;;;;;6288559;28;20197;-67
2022/04/16 12:26:31;;;;;;;0.20;0.20;;;21.90;29.30;;;;;;6284386;28;20218;-68
2022/04/16 12:29:32;;;;;;;0.30;0.30;;;22.90;29.70;;;;;;6284584;28;20191;-65
2022/04/16 12:32:33;;;;;;;0.50;0.50;;;23.40;27.00;;;;;;6285582;28;20205;-67
2022/04/16 12:35:36;;;;;;;0.60;0.20;;;23.70;27.20;;;;;;6271450;28;20195;-67
2022/04/16 12:38:36;;;;;;;0.30;0.30;;;24.00;26.10;;;;;;6305112;28;20192;-66
2022/04/16 12:41:38;;;;;;;0.23;0.23;;;22.90;27.10;;;;;;6279883;28;20208;-68
2022/04/16 12:44:39;;;;;;;0.20;0.20;;;22.70;27.90;;;;;;6266351;28;20200;-67
2022/04/16 12:47:40;;;;;;;0.30;0.20;;;22.80;27.70;;;;;;6275578;28;20208;-67
2022/04/16 12:50:41;;;;;;;0.10;0.10;;;23.20;26.70;;;;;;6285898;28;20189;-66
2022/04/16 12:53:42;;;;;;;0.20;0.20;;;23.30;27.40;;;;;;6293457;28;20260;-68
2022/04/16 12:56:43;;;;;;;0.20;0.10;;;23.20;27.30;;;;;;6288621;28;20296;-67
2022/04/16 12:59:44;;;;;;;0.20;0.20;;;23.20;26.80;;;;;;6279822;28;20297;-68
2022/04/16 13:02:46;;;;;;;0.10;0.10;;;23.60;27.70;;;;;;6269857;28;20192;-67
2022/04/16 13:05:46;;;;;;;0.20;0.20;;;24.20;27.10;;;;;;6265910;28;20193;-68
2022/04/16 13:08:47;;;;;;;0.20;0.20;;;25.00;26.50;;;;;;6280272;28;20212;-67
2022/04/16 13:11:51;;;;;;;0.20;0.20;;;25.70;24.60;;;;;;6261508;28;20195;-68
2022/04/16 13:14:52;;;;;;;2.47;0.37;;;26.10;23.50;;;;;;6286843;28;20208;-69
2022/04/16 13:17:52;;;;;;;0.20;0.20;;;25.40;24.10;;;;;;6287166;28;20229;-69
2022/04/16 13:20:53;;;;;;;0.40;0.20;;;25.70;24.80;;;;;;6276319;28;20228;-68
2022/04/16 13:23:56;;;;;;;0.20;0.20;;;25.80;23.40;;;;;;6261743;28;20498;-67
2022/04/16 13:26:57;;;;;;;0.27;0.20;;;25.60;24.10;;;;;;6286876;28;20310;-68
2022/04/16 13:29:57;;;;;;;0.27;0.20;;;25.30;23.10;;;;;;6303234;28;20234;-67
2022/04/16 13:32:58;;;;;;;0.20;0.10;;;25.50;24.80;;;;;;6269076;28;20185;-67
2022/04/16 13:35:59;;;;;;;0.27;0.20;;;25.80;24.20;;;;;;6261858;28;20283;-68
2022/04/16 13:39:00;;;;;;;0.20;0.20;;;26.10;23.30;;;;;;6268132;28;20200;-68
2022/04/16 13:42:01;;;;;;;0.20;0.20;;;25.70;23.70;;;;;;6285395;28;20283;-69
2022/04/16 13:45:02;;;;;;;0.10;0.10;;;24.80;23.20;;;;;;6274938;28;20194;-68
2022/04/16 13:48:03;;;;;;;0.17;0.17;;;24.70;24.00;;;;;;6289399;28;20211;-68
2022/04/16 13:51:04;;;;;;;0.20;0.20;;;24.30;24.60;;;;;;6290741;28;20196;-68
2022/04/16 13:54:04;;;;;;;0.10;0.10;;;24.20;24.80;;;;;;6283485;28;20195;-68
2022/04/16 13:57:06;;;;;;;0.13;0.13;;;24.40;23.90;;;;;;6262223;28;20271;-68
2022/04/16 14:00:07;;;;;;;0.30;0.30;;;23.80;23.70;;;;;;6262063;28;20200;-68
2022/04/16 14:03:14;;;;;;;0.30;0.30;;;22.50;24.30;;;;;;6262674;28;20293;-68
2022/04/16 14:06:18;;;;;;;1.10;0.50;;;21.90;25.90;;;;;;6286389;28;20262;-68
2022/04/16 14:09:18;;;;;;;0.43;0.43;;;21.00;26.10;;;;;;6285684;28;20200;-68
2022/04/16 14:12:20;;;;;;;0.43;0.40;;;20.80;26.10;;;;;;6285749;28;20224;-68
2022/04/16 14:15:21;;;;;;;1.20;1.10;;;20.60;26.50;;;;;;6285438;28;20192;-68
2022/04/16 14:18:21;;;;;;;1.70;0.40;;;20.70;27.40;;;;;;6286160;28;20219;-68
2022/04/16 14:21:23;;;;;;;1.47;0.60;;;20.90;26.90;;;;;;6269630;28;20214;-67
2022/04/16 14:24:23;;;;;;;0.80;0.60;;;21.10;26.70;;;;;;6303525;28;20204;-67
2022/04/16 14:27:24;;;;;;;0.73;0.50;;;21.30;27.40;;;;;;6286694;28;20227;-67
2022/04/16 14:30:25;;;;;;;0.70;0.50;;;21.20;27.10;;;;;;6263547;28;20239;-68
2022/04/16 14:33:28;;;;;;;0.40;0.30;;;21.00;26.90;;;;;;6281046;28;20173;-68
2022/04/16 14:36:28;;;;;;;0.30;0.30;;;20.30;27.40;;;;;;6297902;28;20189;-68
2022/04/16 14:39:29;;;;;;;0.40;0.40;;;20.00;29.60;;;;;;6265538;28;20196;-68
2022/04/16 14:42:30;;;;;;;0.30;0.30;;;20.20;29.30;;;;;;6301854;28;20184;-68
2022/04/16 14:45:31;;;;;;;0.43;0.43;;;20.30;28.80;;;;;;6290110;28;20196;-68
2022/04/16 14:48:31;;;;;;;0.40;0.40;;;20.30;27.90;;;;;;6300803;28;20241;-68
2022/04/16 14:51:33;;;;;;;0.50;0.50;;;20.30;27.40;;;;;;6271086;28;20193;-68
2022/04/16 14:54:35;;;;;;;1.30;0.40;;;19.80;27.70;;;;;;6266428;28;20248;-68
2022/04/16 14:57:35;;;;;;;0.40;0.40;;;19.60;28.00;;;;;;6285077;28;20199;-68
2022/04/16 15:00:36;;;;;;;0.20;0.20;;;19.00;28.40;;;;;;6288978;28;20189;-68
2022/04/16 15:03:38;;;;;;;0.67;0.67;;;18.70;28.70;;;;;;6281222;28;20192;-68
2022/04/16 15:06:39;;;;;;;0.63;0.63;;;18.00;29.20;;;;;;6282014;28;20192;-68
2022/04/16 15:09:40;;;;;;;1.70;0.57;;;17.90;30.20;;;;;;6282117;28;20184;-67
2022/04/16 15:12:40;;;;;;;0.60;0.60;;;17.50;31.10;;;;;;6271066;28;20200;-67
2022/04/16 15:15:41;;;;;;;0.33;0.33;;;17.50;31.50;;;;;;6295971;28;20189;-68
2022/04/16 15:18:42;;;;;;;1.40;0.70;;;17.00;32.40;;;;;;6265279;28;20201;-68
2022/04/16 15:21:43;;;;;;;0.70;0.70;;;16.80;33.10;;;;;;6265530;28;20181;-68
2022/04/16 15:24:44;;;;;;;0.87;0.40;;;16.80;34.20;;;;;;6269162;28;20228;-68
2022/04/16 15:27:44;;;;;;;0.47;0.47;;;17.10;33.00;;;;;;6307079;28;20208;-68
2022/04/16 15:30:49;;;;;;;0.20;0.20;;;17.20;33.10;;;;;;6278035;28;20231;-68
2022/04/16 15:33:52;;;;;;;0.33;0.30;;;16.90;33.20;;;;;;6281382;28;20247;-68
2022/04/16 15:36:53;;;;;;;0.40;0.40;;;16.60;33.80;;;;;;6264209;28;20201;-67
2022/04/16 15:39:55;;;;;;;0.40;0.40;;;16.30;34.60;;;;;;6265257;28;20279;-67
2022/04/16 15:42:57;;;;;;;0.67;0.43;;;16.30;35.80;;;;;;6288746;28;20249;-67
2022/04/16 15:45:59;;;;;;;0.40;0.40;;;16.60;34.60;;;;;;6286668;28;20271;-68
2022/04/16 15:49:02;;;;;;;0.40;0.40;;;16.70;34.10;;;;;;6302151;28;20220;-68
2022/04/16 15:52:03;;;;;;;0.50;0.47;;;16.80;34.30;;;;;;6330585;28;20243;-69
2022/04/16 15:55:05;;;;;;;0.40;0.37;;;16.60;34.60;;;;;;6273726;28;20245;-68
2022/04/16 15:58:05;;;;;;;0.33;0.33;;;16.00;34.90;;;;;;6273084;28;20229;-67
2022/04/16 16:01:06;;;;;;;0.40;0.40;;;15.50;35.80;;;;;;6274331;28;20198;-67
2022/04/16 16:04:54;;;;;;;0.63;0.60;;;15.10;36.20;;;;;;6263329;28;20186;-68
2022/04/16 16:07:29;;;;;;;0.40;0.40;;;14.80;35.90;;;;;;6266326;28;20218;-68
2022/04/16 16:10:30;;;;;;;0.50;0.40;;;14.40;36.30;;;;;;6279983;28;20205;-67
2022/04/16 16:13:31;;;;;;;0.90;0.63;;;14.10;36.80;;;;;;6262887;28;20195;-67
2022/04/16 16:16:32;;;;;;;1.97;1.77;;;13.80;37.20;;;;;;6263248;28;20196;-68
2022/04/16 16:19:32;;;;;;;3.83;2.53;;;13.50;37.20;;;;;;6263417;28;20224;-68